Time;durP1;ratioP1;P1;durP2;ratioP2;P2;SDS_P1;SDS_P2;PMS_P1;PMS_P2;Temp;Humidity;BMP_temperature;BMP_pressure;BME280_temperature;BME280_humidity;BME280_pressure;Samples;Min_cycle;Max_cycle;Signal;HPM_P1;HPM_P2
2023/04/29 00:01:09;;;;;;;5.72;1.90;;;14.70;88.10;;;;;;1935744;74;21006;-49
2023/04/29 00:03:38;;;;;;;4.47;2.17;;;14.70;88.20;;;;;;1935681;74;21092;-48
2023/04/29 00:06:07;;;;;;;4.37;2.20;;;14.70;88.30;;;;;;1935670;74;21132;-49
2023/04/29 00:08:36;;;;;;;2.20;1.80;;;14.70;88.30;;;;;;1935596;74;21549;-49
2023/04/29 00:11:06;;;;;;;5.12;1.62;;;14.70;88.30;;;;;;1935609;74;21081;-48
2023/04/29 00:13:35;;;;;;;3.12;2.25;;;14.70;88.30;;;;;;1935782;74;21112;-49
2023/04/29 00:16:05;;;;;;;2.65;1.95;;;14.60;88.40;;;;;;1935847;74;21015;-48
2023/04/29 00:18:34;;;;;;;3.77;1.60;;;14.70;88.60;;;;;;1935932;74;21007;-48
2023/04/29 00:21:04;;;;;;;2.45;1.62;;;14.70;88.50;;;;;;1935822;74;21097;-48
2023/04/29 00:23:34;;;;;;;4.17;2.22;;;14.70;88.40;;;;;;1935977;74;21020;-48
2023/04/29 00:26:03;;;;;;;1.90;1.50;;;14.70;88.50;;;;;;1940048;73;21138;-48
2023/04/29 00:28:32;;;;;;;3.10;1.55;;;14.70;88.60;;;;;;1943034;74;21485;-48
2023/04/29 00:31:02;;;;;;;4.42;1.80;;;14.60;88.40;;;;;;1943086;74;21156;-48
2023/04/29 00:33:32;;;;;;;3.72;1.42;;;14.60;88.50;;;;;;1943183;74;21095;-49
2023/04/29 00:36:01;;;;;;;4.15;1.65;;;14.60;88.60;;;;;;1943044;74;21069;-47
2023/04/29 00:38:30;;;;;;;5.95;2.30;;;14.50;88.40;;;;;;1943098;74;20999;-48
2023/04/29 00:40:59;;;;;;;3.40;1.35;;;14.50;88.40;;;;;;1943183;74;21003;-47
2023/04/29 00:43:28;;;;;;;2.65;1.47;;;14.50;88.40;;;;;;1943191;74;21051;-48
2023/04/29 00:45:57;;;;;;;3.15;1.65;;;14.50;88.40;;;;;;1943030;74;21257;-48
2023/04/29 00:48:27;;;;;;;3.72;1.77;;;14.40;88.40;;;;;;1943073;74;21112;-48
2023/04/29 00:50:56;;;;;;;5.55;1.70;;;14.40;88.70;;;;;;1943079;74;21070;-48
2023/04/29 00:53:26;;;;;;;3.05;1.60;;;14.40;88.90;;;;;;1943097;74;21128;-48
2023/04/29 00:55:56;;;;;;;1.90;1.70;;;14.40;88.90;;;;;;1943137;74;21080;-48
2023/04/29 00:58:31;;;;;;;2.52;1.40;;;14.40;88.90;;;;;;1943023;74;21019;-47
2023/04/29 01:00:56;;;;;;;4.72;1.52;;;14.40;89.10;;;;;;1941834;74;21019;-48
2023/04/29 01:03:25;;;;;;;3.62;1.80;;;14.30;89.10;;;;;;1943217;74;21079;-47
2023/04/29 01:06:00;;;;;;;4.28;1.95;;;14.20;89.10;;;;;;1943183;74;21007;-48
2023/04/29 01:08:44;;;;;;;3.27;1.67;;;14.20;89.20;;;;;;1942122;74;21149;-48
2023/04/29 01:11:15;;;;;;;4.25;1.70;;;14.20;89.60;;;;;;1894543;73;21137;-48
2023/04/29 01:13:54;;;;;;;2.45;1.47;;;14.20;89.50;;;;;;1943332;74;21091;-48
2023/04/29 01:16:38;;;;;;;2.42;1.85;;;14.20;89.50;;;;;;1943075;74;21162;-48
2023/04/29 01:19:14;;;;;;;4.67;1.60;;;14.20;89.50;;;;;;1942830;74;21119;-47
2023/04/29 01:21:48;;;;;;;3.15;1.60;;;14.30;89.50;;;;;;1942109;73;21097;-48
2023/04/29 01:24:17;;;;;;;7.22;2.27;;;14.30;89.40;;;;;;1890237;76;21007;-48
2023/04/29 01:26:53;;;;;;;2.35;1.60;;;14.20;89.40;;;;;;1869378;76;21172;-48
2023/04/29 01:29:45;;;;;;;4.42;1.72;;;14.10;89.40;;;;;;1957541;73;21107;-49
2023/04/29 01:32:14;;;;;;;;;;;14.10;89.80;;;;;;1930722;73;21163;-48
2023/04/29 01:34:46;;;;;;;3.15;1.72;;;14.10;89.90;;;;;;1958437;73;20136;-48
2023/04/29 01:37:22;;;;;;;3.42;1.70;;;14.00;89.70;;;;;;1958544;73;21090;-48
2023/04/29 01:40:14;;;;;;;1.98;1.70;;;14.10;89.80;;;;;;1958669;73;21148;-49
2023/04/29 01:42:53;;;;;;;1.92;1.20;;;14.10;89.80;;;;;;1956862;73;21094;-48
2023/04/29 01:45:23;;;;;;;5.37;1.22;;;14.20;89.70;;;;;;1957189;73;21106;-48
2023/04/29 01:47:57;;;;;;;2.77;1.50;;;14.10;89.40;;;;;;1958785;73;21568;-49
2023/04/29 01:50:27;;;;;;;1.92;1.07;;;14.10;89.20;;;;;;1958810;73;21088;-47
2023/04/29 01:52:58;;;;;;;2.12;1.05;;;14.20;89.20;;;;;;1957949;73;21152;-48
2023/04/29 01:55:27;;;;;;;3.30;1.17;;;14.10;89.10;;;;;;1958650;73;21049;-47
2023/04/29 01:57:58;;;;;;;2.70;1.17;;;14.10;88.90;;;;;;1953248;73;21157;-48
2023/04/29 02:00:47;;;;;;;4.70;1.15;;;14.10;89.00;;;;;;1954859;73;21029;-48
2023/04/29 02:03:16;;;;;;;2.67;1.10;;;14.10;88.90;;;;;;1958725;73;21503;-48
2023/04/29 02:05:49;;;;;;;3.05;1.10;;;14.10;88.70;;;;;;1958299;73;21079;-47
2023/04/29 02:08:18;;;;;;;2.10;1.15;;;14.10;88.60;;;;;;1958719;73;21072;-48
2023/04/29 02:10:58;;;;;;;1.00;0.70;;;14.10;88.60;;;;;;1958830;73;21092;-47
2023/04/29 02:13:28;;;;;;;3.27;1.00;;;14.10;88.60;;;;;;1956612;73;21402;-48
2023/04/29 02:15:58;;;;;;;2.90;0.90;;;14.00;88.60;;;;;;1958746;73;21064;-48
2023/04/29 02:18:27;;;;;;;2.45;1.00;;;14.00;88.70;;;;;;1958804;73;21105;-48
2023/04/29 02:21:01;;;;;;;3.90;1.37;;;14.00;88.80;;;;;;1958772;73;21003;-48
2023/04/29 02:23:30;;;;;;;3.37;1.27;;;14.00;88.80;;;;;;1958708;73;21132;-48
2023/04/29 02:26:00;;;;;;;4.08;1.15;;;14.00;88.80;;;;;;1958660;73;21053;-47
2023/04/29 02:28:29;;;;;;;2.90;1.15;;;14.00;88.80;;;;;;1958736;73;21057;-47
2023/04/29 02:30:59;;;;;;;1.30;0.93;;;14.00;89.00;;;;;;1958670;73;21135;-48
2023/04/29 02:33:28;;;;;;;2.40;1.25;;;14.00;88.90;;;;;;1958775;73;21027;-48
2023/04/29 02:35:58;;;;;;;2.15;1.27;;;14.00;88.80;;;;;;1958633;73;21078;-48
2023/04/29 02:38:27;;;;;;;2.58;1.12;;;14.00;88.90;;;;;;1958682;73;21034;-48
2023/04/29 02:40:57;;;;;;;2.12;1.02;;;14.00;88.70;;;;;;1958996;73;21026;-48
2023/04/29 02:43:29;;;;;;;1.42;0.75;;;14.00;88.60;;;;;;1958917;73;21081;-47
2023/04/29 02:45:57;;;;;;;2.90;1.92;;;14.00;88.60;;;;;;1958574;73;21167;-48
2023/04/29 02:48:26;;;;;;;2.00;0.90;;;13.90;88.60;;;;;;1958818;73;21105;-48
2023/04/29 02:50:55;;;;;;;1.50;0.80;;;13.90;88.70;;;;;;1958690;73;21042;-48
2023/04/29 02:53:24;;;;;;;2.40;1.00;;;14.00;88.80;;;;;;1958874;73;20998;-48
2023/04/29 02:55:54;;;;;;;4.08;1.20;;;13.90;88.70;;;;;;1958796;73;21022;-48
2023/04/29 02:58:23;;;;;;;2.15;1.05;;;13.90;88.80;;;;;;1958897;73;20986;-48
2023/04/29 03:00:52;;;;;;;3.90;1.30;;;13.90;88.80;;;;;;1958726;73;21030;-49
2023/04/29 03:03:22;;;;;;;1.30;0.90;;;13.90;88.80;;;;;;1958706;73;21505;-49
2023/04/29 03:05:51;;;;;;;2.42;1.12;;;13.90;88.80;;;;;;1958799;73;21022;-49
2023/04/29 03:08:21;;;;;;;1.05;0.72;;;13.90;88.80;;;;;;1958762;73;21073;-49
2023/04/29 03:10:50;;;;;;;2.65;1.00;;;13.90;88.70;;;;;;1958796;73;21111;-48
2023/04/29 03:13:20;;;;;;;1.95;0.98;;;13.90;88.80;;;;;;1958760;73;21002;-48
2023/04/29 03:15:50;;;;;;;3.37;0.82;;;13.90;88.80;;;;;;1958825;73;20995;-48
2023/04/29 03:18:19;;;;;;;1.60;1.07;;;13.90;88.80;;;;;;1958864;73;21026;-48
2023/04/29 03:20:49;;;;;;;2.30;0.85;;;13.80;88.80;;;;;;1958741;73;21105;-48
2023/04/29 03:23:18;;;;;;;5.62;1.17;;;13.80;88.90;;;;;;1958770;73;21010;-48
2023/04/29 03:25:47;;;;;;;2.40;0.95;;;13.90;89.00;;;;;;1958844;73;21157;-49
2023/04/29 03:28:16;;;;;;;2.52;1.30;;;13.80;88.90;;;;;;1958770;73;21590;-48
2023/04/29 03:30:46;;;;;;;9.95;1.80;;;13.90;89.00;;;;;;1958735;73;21034;-48
2023/04/29 03:33:15;;;;;;;2.40;1.20;;;13.90;88.90;;;;;;1958888;73;21006;-48
2023/04/29 03:35:44;;;;;;;3.25;1.02;;;14.00;88.90;;;;;;1958801;73;21085;-48
2023/04/29 03:38:21;;;;;;;3.17;1.52;;;14.00;88.90;;;;;;1955711;73;21123;-47
2023/04/29 03:40:50;;;;;;;4.03;1.35;;;14.00;88.90;;;;;;1958697;73;21186;-48
2023/04/29 03:43:19;;;;;;;4.85;2.00;;;14.10;88.80;;;;;;1958823;73;21014;-47
2023/04/29 03:45:49;;;;;;;3.90;1.55;;;14.10;88.80;;;;;;1958912;73;21090;-48
2023/04/29 03:48:20;;;;;;;5.03;1.57;;;14.20;88.90;;;;;;1958730;73;21141;-48
2023/04/29 03:50:49;;;;;;;3.95;1.60;;;14.20;88.90;;;;;;1958849;73;20999;-47
2023/04/29 03:53:19;;;;;;;2.52;1.52;;;14.20;88.90;;;;;;1958790;73;21143;-48
2023/04/29 03:55:48;;;;;;;4.00;1.40;;;14.30;89.00;;;;;;1958790;73;21043;-48
2023/04/29 03:58:17;;;;;;;3.58;1.12;;;14.30;89.10;;;;;;1958742;73;21113;-48
2023/04/29 04:00:48;;;;;;;2.17;1.17;;;14.30;88.90;;;;;;1958725;73;21153;-48
2023/04/29 04:03:19;;;;;;;2.67;1.30;;;14.40;88.80;;;;;;1958391;73;21070;-48
2023/04/29 04:05:48;;;;;;;3.60;1.72;;;14.40;88.70;;;;;;1958803;73;21002;-48
2023/04/29 04:08:18;;;;;;;3.17;1.40;;;14.50;88.70;;;;;;1958704;73;21006;-48
2023/04/29 04:10:49;;;;;;;4.83;1.20;;;14.60;88.60;;;;;;1957774;73;21099;-48
2023/04/29 04:13:22;;;;;;;9.78;1.87;;;14.50;88.40;;;;;;1931021;73;21167;-48
2023/04/29 04:15:52;;;;;;;2.92;1.07;;;14.70;88.30;;;;;;1958711;73;21066;-48
2023/04/29 04:18:21;;;;;;;7.42;1.45;;;14.70;88.10;;;;;;1958637;73;21007;-48
2023/04/29 04:20:51;;;;;;;5.25;1.55;;;14.70;87.90;;;;;;1958802;73;20982;-48
2023/04/29 04:23:20;;;;;;;6.40;1.80;;;14.70;87.80;;;;;;1958607;73;21034;-49
2023/04/29 04:25:49;;;;;;;5.83;1.30;;;14.70;87.90;;;;;;1958670;73;21080;-48
2023/04/29 04:28:27;;;;;;;3.98;2.27;;;14.80;87.80;;;;;;1908791;73;21033;-48
2023/04/29 04:30:57;;;;;;;3.33;1.20;;;14.80;87.70;;;;;;1963356;73;21022;-49
2023/04/29 04:33:26;;;;;;;7.92;3.30;;;14.80;87.40;;;;;;1965821;73;21449;-48
2023/04/29 04:35:56;;;;;;;2.80;1.37;;;14.80;86.70;;;;;;1965710;73;20987;-48
2023/04/29 04:38:26;;;;;;;3.67;1.22;;;14.80;87.20;;;;;;1965819;73;21112;-48
2023/04/29 04:40:56;;;;;;;3.02;1.80;;;14.80;87.10;;;;;;1965881;73;21437;-48
2023/04/29 04:43:33;;;;;;;2.87;1.92;;;14.80;86.90;;;;;;1964955;73;21045;-49
2023/04/29 04:46:13;;;;;;;2.80;0.98;;;14.80;86.70;;;;;;1965811;73;21010;-48
2023/04/29 04:48:43;;;;;;;5.15;1.20;;;14.80;86.50;;;;;;1963994;73;21041;-48
2023/04/29 04:51:15;;;;;;;1.22;0.75;;;14.80;86.60;;;;;;1965735;73;21041;-48
2023/04/29 04:53:44;;;;;;;3.08;1.25;;;14.80;86.60;;;;;;1965911;73;21006;-48
2023/04/29 04:56:15;;;;;;;2.90;0.93;;;14.80;86.70;;;;;;1964459;73;21014;-48
2023/04/29 04:58:44;;;;;;;4.25;1.15;;;14.80;86.50;;;;;;1965897;73;21038;-48
2023/04/29 05:01:13;;;;;;;3.67;2.00;;;14.90;86.50;;;;;;1965784;73;21069;-48
2023/04/29 05:03:43;;;;;;;4.72;1.22;;;14.90;86.40;;;;;;1933612;73;21026;-48
2023/04/29 05:06:12;;;;;;;3.50;1.30;;;14.90;86.40;;;;;;1965769;73;21092;-48
2023/04/29 05:08:42;;;;;;;5.03;2.12;;;14.80;86.50;;;;;;1965771;73;21088;-48
2023/04/29 05:11:19;;;;;;;6.37;1.35;;;14.80;86.60;;;;;;1965844;73;21034;-49
2023/04/29 05:13:50;;;;;;;3.45;1.60;;;14.80;86.70;;;;;;1962646;73;21143;-48
2023/04/29 05:16:19;;;;;;;4.40;1.25;;;14.80;86.60;;;;;;1965773;73;21002;-48
2023/04/29 05:18:49;;;;;;;5.33;1.12;;;14.80;86.80;;;;;;1965831;73;21010;-48
2023/04/29 05:21:18;;;;;;;2.65;1.12;;;14.80;86.80;;;;;;1965829;73;21072;-48
2023/04/29 05:23:48;;;;;;;5.30;1.30;;;14.80;86.80;;;;;;1933585;73;21464;-48
2023/04/29 05:26:17;;;;;;;17.10;3.12;;;14.90;86.80;;;;;;1965792;73;20983;-48
2023/04/29 05:28:46;;;;;;;3.52;0.85;;;14.80;86.80;;;;;;1957393;73;21032;-48
2023/04/29 05:31:16;;;;;;;4.35;1.10;;;14.90;86.70;;;;;;1946489;74;21450;-50
2023/04/29 05:33:45;;;;;;;4.20;1.50;;;14.90;86.70;;;;;;1946647;74;21043;-49
2023/04/29 05:36:15;;;;;;;2.70;1.07;;;14.90;86.70;;;;;;1946602;74;21010;-48
2023/04/29 05:38:44;;;;;;;4.40;1.25;;;14.80;86.60;;;;;;1946530;74;21007;-48
2023/04/29 05:41:13;;;;;;;5.87;1.75;;;14.90;86.80;;;;;;1946533;74;21006;-47
2023/04/29 05:43:47;;;;;;;8.00;1.32;;;14.90;86.80;;;;;;1946467;74;21051;-48
2023/04/29 05:46:16;;;;;;;3.17;1.10;;;14.90;86.70;;;;;;1946540;74;21003;-49
2023/04/29 05:48:45;;;;;;;2.25;1.50;;;14.90;86.80;;;;;;1946457;74;21100;-48
2023/04/29 05:51:15;;;;;;;2.42;1.10;;;15.00;86.90;;;;;;1946474;74;21018;-48
2023/04/29 05:53:45;;;;;;;4.95;1.10;;;15.00;86.70;;;;;;1946398;74;21014;-48
2023/04/29 05:56:14;;;;;;;3.65;1.02;;;15.00;86.60;;;;;;1946402;74;21136;-48
2023/04/29 05:58:43;;;;;;;6.15;1.20;;;15.00;86.60;;;;;;1946410;74;21023;-49
2023/04/29 06:01:12;;;;;;;6.08;1.22;;;14.90;86.40;;;;;;1946363;74;21219;-49
2023/04/29 06:03:42;;;;;;;7.53;1.40;;;14.90;86.40;;;;;;1946444;74;21047;-49
2023/04/29 06:06:25;;;;;;;4.78;1.65;;;14.90;86.60;;;;;;1943454;74;21051;-48
2023/04/29 06:09:14;;;;;;;3.50;0.95;;;14.90;86.50;;;;;;1946340;74;21096;-48
2023/04/29 06:11:44;;;;;;;2.20;1.20;;;14.90;86.40;;;;;;1946519;74;21018;-48
2023/04/29 06:14:13;;;;;;;5.28;1.40;;;14.90;86.40;;;;;;1946441;74;21089;-48
2023/04/29 06:16:42;;;;;;;7.05;2.33;;;14.90;86.50;;;;;;1946692;74;21015;-49
2023/04/29 06:19:11;;;;;;;5.95;1.98;;;14.90;86.30;;;;;;1946403;74;21022;-49
2023/04/29 06:21:41;;;;;;;4.40;1.20;;;15.00;86.50;;;;;;1946546;74;21050;-48
2023/04/29 06:24:10;;;;;;;2.98;1.22;;;15.00;86.40;;;;;;1946520;74;21128;-49
2023/04/29 06:26:39;;;;;;;4.20;1.20;;;15.00;86.40;;;;;;1946442;74;21398;-48
2023/04/29 06:29:08;;;;;;;3.87;1.20;;;15.00;86.40;;;;;;1947130;73;21047;-48
2023/04/29 06:31:38;;;;;;;1.92;0.93;;;15.00;87.00;;;;;;1948527;74;21010;-49
2023/04/29 06:34:07;;;;;;;3.10;1.40;;;15.00;86.60;;;;;;1948393;74;21011;-48
2023/04/29 06:36:38;;;;;;;7.67;1.47;;;15.00;86.50;;;;;;1946192;74;21062;-48
2023/04/29 06:39:26;;;;;;;4.42;1.40;;;15.00;86.50;;;;;;1829348;77;21072;-48
2023/04/29 06:42:13;;;;;;;3.62;2.25;;;15.00;86.60;;;;;;1829077;78;21063;-48
2023/04/29 06:44:50;;;;;;;4.05;1.35;;;15.00;86.60;;;;;;1870312;74;21026;-49
2023/04/29 06:47:24;;;;;;;10.63;1.32;;;15.00;86.60;;;;;;1944354;74;21042;-48
2023/04/29 06:50:10;;;;;;;3.75;1.47;;;15.00;86.60;;;;;;1947818;74;21041;-48
2023/04/29 06:52:39;;;;;;;2.42;0.88;;;15.00;86.60;;;;;;1948378;74;21003;-50
2023/04/29 06:55:10;;;;;;;3.90;1.12;;;15.00;86.60;;;;;;1948390;74;21027;-48
2023/04/29 06:57:40;;;;;;;2.92;0.90;;;15.00;86.50;;;;;;1948569;74;20995;-49
2023/04/29 07:00:10;;;;;;;5.42;1.35;;;15.00;86.60;;;;;;1948450;74;21081;-49
2023/04/29 07:02:39;;;;;;;3.77;1.27;;;15.00;86.60;;;;;;1948594;74;20998;-49
2023/04/29 07:05:10;;;;;;;4.17;1.30;;;15.00;86.70;;;;;;1948358;74;21121;-49
2023/04/29 07:07:39;;;;;;;4.15;1.40;;;14.90;86.90;;;;;;1948422;74;21065;-49
2023/04/29 07:10:09;;;;;;;5.80;1.55;;;14.90;87.10;;;;;;1948448;73;21395;-50
2023/04/29 07:12:38;;;;;;;6.03;1.87;;;14.90;87.50;;;;;;1948510;74;21018;-51
2023/04/29 07:15:07;;;;;;;2.05;1.70;;;14.90;87.70;;;;;;1948310;74;21418;-49
2023/04/29 07:17:37;;;;;;;13.28;5.87;;;14.80;87.80;;;;;;1948142;74;21061;-51
2023/04/29 07:20:07;;;;;;;10.05;4.28;;;14.70;88.10;;;;;;1948360;74;21140;-49
2023/04/29 07:22:36;;;;;;;3.17;1.87;;;14.70;88.40;;;;;;1948423;74;21074;-49
2023/04/29 07:25:05;;;;;;;4.20;2.30;;;14.60;88.90;;;;;;1948499;74;21066;-48
2023/04/29 07:27:35;;;;;;;5.92;3.27;;;14.50;89.30;;;;;;1948224;74;21145;-51
2023/04/29 07:30:05;;;;;;;6.83;3.00;;;14.50;89.40;;;;;;1952810;73;21098;-48
2023/04/29 07:32:34;;;;;;;6.22;3.40;;;14.40;89.60;;;;;;1958628;73;21060;-48
2023/04/29 07:35:05;;;;;;;3.95;2.17;;;14.40;89.80;;;;;;1958491;73;21464;-49
2023/04/29 07:37:34;;;;;;;3.22;1.50;;;14.40;90.00;;;;;;1958534;73;21219;-48
2023/04/29 07:40:04;;;;;;;7.25;2.12;;;14.30;90.00;;;;;;1958571;73;21200;-48
2023/04/29 07:42:34;;;;;;;3.75;1.60;;;14.30;90.10;;;;;;1958572;73;21109;-49
2023/04/29 07:45:03;;;;;;;5.97;2.40;;;14.30;90.30;;;;;;1958747;73;21342;-48
2023/04/29 07:47:33;;;;;;;4.55;2.35;;;14.30;90.40;;;;;;1958720;73;21121;-49
2023/04/29 07:50:03;;;;;;;5.42;1.75;;;14.20;90.40;;;;;;1958765;73;21136;-49
2023/04/29 07:52:32;;;;;;;5.45;1.90;;;14.20;90.60;;;;;;1958778;73;21002;-48
2023/04/29 07:55:01;;;;;;;5.35;2.40;;;14.20;90.60;;;;;;1958843;73;21524;-49
2023/04/29 07:57:31;;;;;;;4.45;2.17;;;14.20;90.70;;;;;;1958670;73;21331;-49
2023/04/29 08:00:00;;;;;;;4.10;2.12;;;14.20;90.80;;;;;;1958868;73;21124;-48
2023/04/29 08:02:29;;;;;;;7.47;1.77;;;14.30;90.90;;;;;;1958881;73;21072;-48
2023/04/29 08:04:59;;;;;;;3.70;1.80;;;14.30;90.90;;;;;;1958823;73;21153;-49
2023/04/29 08:07:28;;;;;;;5.12;2.20;;;14.30;91.00;;;;;;1958662;73;21134;-48
2023/04/29 08:09:59;;;;;;;10.43;6.75;;;14.30;91.10;;;;;;1958713;73;21658;-49
2023/04/29 08:12:30;;;;;;;6.28;3.10;;;14.30;91.10;;;;;;1958698;73;21254;-49
2023/04/29 08:14:59;;;;;;;4.67;2.55;;;14.40;91.20;;;;;;1958866;73;21161;-48
2023/04/29 08:17:28;;;;;;;4.05;2.10;;;14.40;91.60;;;;;;1958641;73;21496;-48
2023/04/29 08:19:57;;;;;;;3.15;1.47;;;14.40;91.30;;;;;;1958825;73;21159;-48
2023/04/29 08:22:26;;;;;;;4.80;1.60;;;14.40;91.30;;;;;;1958667;73;21149;-49
2023/04/29 08:24:55;;;;;;;4.92;1.42;;;14.40;91.40;;;;;;1958680;73;21461;-49
2023/04/29 08:27:25;;;;;;;3.25;1.55;;;14.50;91.40;;;;;;1958650;73;21125;-48
2023/04/29 08:29:55;;;;;;;5.87;1.75;;;14.40;91.40;;;;;;1957534;73;21179;-48
2023/04/29 08:32:24;;;;;;;2.27;1.70;;;14.50;91.40;;;;;;1948319;74;21239;-48
2023/04/29 08:34:53;;;;;;;2.95;1.40;;;14.40;91.40;;;;;;1948439;74;21221;-49
2023/04/29 08:37:22;;;;;;;5.00;1.80;;;14.50;91.50;;;;;;1948431;73;21335;-48
2023/04/29 08:39:51;;;;;;;3.50;1.50;;;14.50;91.50;;;;;;1948424;74;21600;-48
2023/04/29 08:42:23;;;;;;;2.70;1.75;;;14.50;91.60;;;;;;1948402;74;21636;-48
2023/04/29 08:44:53;;;;;;;4.55;2.70;;;14.50;91.60;;;;;;1946247;74;21540;-49
2023/04/29 08:47:22;;;;;;;5.80;2.00;;;14.50;91.60;;;;;;1948369;74;21133;-49
2023/04/29 08:49:51;;;;;;;4.22;1.87;;;14.50;91.70;;;;;;1948464;74;21066;-49
2023/04/29 08:52:20;;;;;;;4.15;2.02;;;14.50;91.80;;;;;;1948502;74;21552;-48
2023/04/29 08:54:50;;;;;;;4.65;2.20;;;14.50;91.80;;;;;;1948400;74;21180;-49
2023/04/29 08:57:20;;;;;;;8.40;2.37;;;14.50;91.70;;;;;;1948391;74;21124;-48
2023/04/29 08:59:49;;;;;;;4.83;2.15;;;14.40;91.80;;;;;;1948171;74;21142;-48
2023/04/29 09:02:20;;;;;;;4.97;2.15;;;14.40;91.90;;;;;;1948138;74;21237;-48
2023/04/29 09:04:55;;;;;;;4.60;2.15;;;14.30;92.00;;;;;;1948257;74;21193;-48
2023/04/29 09:07:24;;;;;;;5.22;1.92;;;14.30;92.40;;;;;;1947908;74;21224;-49
2023/04/29 09:09:54;;;;;;;9.08;5.45;;;14.20;92.20;;;;;;1948436;74;21145;-49
2023/04/29 09:12:23;;;;;;;3.47;2.08;;;14.10;92.10;;;;;;1948440;74;21322;-49
2023/04/29 09:14:52;;;;;;;3.70;1.92;;;14.10;92.30;;;;;;1948395;74;21276;-48
2023/04/29 09:17:39;;;;;;;2.58;1.45;;;14.10;92.30;;;;;;1948420;74;21135;-48
2023/04/29 09:20:23;;;;;;;5.87;4.30;;;14.20;92.30;;;;;;1863804;77;21128;-48
2023/04/29 09:22:57;;;;;;;6.50;1.90;;;14.20;92.20;;;;;;1849479;77;21581;-48
2023/04/29 09:25:26;;;;;;;2.90;1.50;;;14.20;92.20;;;;;;1934727;74;21039;-49
2023/04/29 09:27:56;;;;;;;3.70;1.50;;;14.20;92.10;;;;;;1935617;74;21214;-49
2023/04/29 09:30:25;;;;;;;2.08;1.35;;;14.20;92.10;;;;;;1935507;73;21134;-48
2023/04/29 09:33:08;;;;;;;2.85;1.75;;;14.20;92.20;;;;;;1935665;74;21313;-49
2023/04/29 09:35:40;;;;;;;3.65;1.67;;;14.20;92.10;;;;;;1921677;74;21569;-48
2023/04/29 09:38:11;;;;;;;3.92;1.52;;;14.30;92.30;;;;;;1935716;74;21129;-49
2023/04/29 09:40:44;;;;;;;3.95;1.70;;;14.30;92.30;;;;;;1935862;74;21119;-48
2023/04/29 09:43:17;;;;;;;2.62;1.75;;;14.30;92.40;;;;;;1935699;74;21735;-49
2023/04/29 09:45:47;;;;;;;4.20;1.60;;;14.20;92.40;;;;;;1935503;74;21158;-48
2023/04/29 09:48:17;;;;;;;2.83;1.25;;;14.20;92.40;;;;;;1935598;74;21119;-48
2023/04/29 09:50:49;;;;;;;2.85;1.15;;;14.20;92.50;;;;;;1935490;74;21182;-48
2023/04/29 09:53:21;;;;;;;4.47;1.30;;;14.20;92.50;;;;;;1932316;74;21253;-48
2023/04/29 09:56:01;;;;;;;1.32;0.95;;;14.20;92.50;;;;;;1933722;74;21145;-48
2023/04/29 09:58:37;;;;;;;3.12;1.05;;;14.30;92.50;;;;;;1935496;74;21095;-48
2023/04/29 10:01:03;;;;;;;1.80;1.20;;;14.40;92.70;;;;;;1934122;74;21356;-49
2023/04/29 10:03:34;;;;;;;2.55;1.30;;;14.50;92.50;;;;;;1935563;74;21241;-48
2023/04/29 10:06:06;;;;;;;1.87;1.35;;;14.50;92.40;;;;;;1935325;74;21314;-48
2023/04/29 10:08:35;;;;;;;3.20;0.90;;;14.50;92.50;;;;;;1935550;74;21209;-48
2023/04/29 10:11:05;;;;;;;1.40;1.07;;;14.60;92.60;;;;;;1935564;74;21102;-48
2023/04/29 10:13:37;;;;;;;3.60;2.47;;;14.50;92.50;;;;;;1935522;74;21263;-49
2023/04/29 10:16:21;;;;;;;2.08;1.27;;;14.50;92.40;;;;;;1935447;74;21218;-49
2023/04/29 10:18:53;;;;;;;1.70;1.20;;;14.50;92.50;;;;;;1935271;74;21718;-49
2023/04/29 10:21:23;;;;;;;2.08;1.35;;;14.50;92.50;;;;;;1935525;74;21670;-49
2023/04/29 10:23:54;;;;;;;2.70;0.93;;;14.60;92.60;;;;;;1934498;74;21142;-49
2023/04/29 10:26:25;;;;;;;1.20;1.00;;;14.60;92.70;;;;;;1935503;74;21232;-48
2023/04/29 10:28:56;;;;;;;3.60;2.05;;;14.60;92.50;;;;;;1935295;74;21146;-48
2023/04/29 10:31:27;;;;;;;5.05;1.87;;;14.60;92.60;;;;;;1935446;74;21220;-49
2023/04/29 10:34:00;;;;;;;5.50;4.00;;;14.60;92.60;;;;;;1935698;74;21134;-49
2023/04/29 10:36:31;;;;;;;1.75;1.55;;;14.70;92.50;;;;;;1935746;74;21015;-48
2023/04/29 10:39:03;;;;;;;1.35;0.85;;;14.70;92.50;;;;;;1935603;74;20984;-48
2023/04/29 10:41:41;;;;;;;1.30;0.82;;;14.70;92.50;;;;;;1935804;74;21591;-48
2023/04/29 10:44:10;;;;;;;1.17;0.80;;;14.80;92.50;;;;;;1932286;74;21060;-48
2023/04/29 10:46:40;;;;;;;2.25;1.60;;;14.80;92.50;;;;;;1935557;74;21219;-48
2023/04/29 10:49:11;;;;;;;3.70;2.65;;;14.70;92.40;;;;;;1935574;74;21138;-48
2023/04/29 10:51:46;;;;;;;1.22;1.12;;;14.70;92.40;;;;;;1935753;74;21241;-48
2023/04/29 10:54:16;;;;;;;1.32;1.10;;;14.70;92.50;;;;;;1935656;74;21130;-49
2023/04/29 10:56:53;;;;;;;3.70;1.20;;;14.70;92.60;;;;;;1935631;74;21047;-48
2023/04/29 10:59:24;;;;;;;2.72;1.17;;;14.70;92.40;;;;;;1935656;74;21083;-48
2023/04/29 11:01:54;;;;;;;3.20;1.60;;;14.70;92.40;;;;;;1931653;74;21180;-48
2023/04/29 11:04:23;;;;;;;4.55;2.22;;;14.80;92.50;;;;;;1935633;74;21054;-48
2023/04/29 11:06:54;;;;;;;2.22;1.57;;;14.80;92.40;;;;;;1935539;74;21208;-47
2023/04/29 11:09:28;;;;;;;2.20;1.10;;;14.80;92.30;;;;;;1935511;74;21134;-49
2023/04/29 11:12:02;;;;;;;2.70;1.70;;;14.90;92.30;;;;;;1935274;74;21075;-50
2023/04/29 11:14:37;;;;;;;2.72;1.70;;;14.80;92.20;;;;;;1935754;74;21071;-48
2023/04/29 11:17:11;;;;;;;4.25;1.90;;;14.80;92.20;;;;;;1935778;74;21077;-50
2023/04/29 11:19:45;;;;;;;2.37;1.30;;;14.80;92.20;;;;;;1935732;74;21718;-48
2023/04/29 11:22:33;;;;;;;2.37;1.45;;;14.90;92.30;;;;;;1932393;74;21569;-48
2023/04/29 11:25:01;;;;;;;5.37;1.67;;;14.80;92.30;;;;;;1934427;74;21226;-48
2023/04/29 11:27:33;;;;;;;2.65;1.30;;;14.80;92.30;;;;;;1935747;74;21134;-48
2023/04/29 11:30:05;;;;;;;2.02;1.00;;;14.90;92.40;;;;;;1934901;74;21399;-48
2023/04/29 11:32:36;;;;;;;2.98;1.20;;;14.90;92.40;;;;;;1941206;74;21154;-47
2023/04/29 11:35:13;;;;;;;1.15;0.98;;;14.90;92.30;;;;;;1948986;74;21076;-48
2023/04/29 11:37:43;;;;;;;2.35;1.05;;;14.80;92.20;;;;;;1948996;74;21118;-48
2023/04/29 11:40:13;;;;;;;0.88;0.80;;;14.80;92.20;;;;;;1948983;74;21215;-48
2023/04/29 11:42:44;;;;;;;3.67;1.60;;;14.70;92.20;;;;;;1948862;74;21347;-48
2023/04/29 11:45:14;;;;;;;1.77;1.10;;;14.70;92.20;;;;;;1948894;74;21184;-48
2023/04/29 11:47:45;;;;;;;1.77;1.02;;;14.60;92.20;;;;;;1948915;74;21176;-48
2023/04/29 11:50:16;;;;;;;1.70;1.20;;;14.60;92.20;;;;;;1948903;74;21066;-47
2023/04/29 11:52:47;;;;;;;2.92;1.10;;;14.60;92.30;;;;;;1948824;73;21169;-48
2023/04/29 11:55:16;;;;;;;2.87;1.40;;;14.60;92.30;;;;;;1948907;74;21154;-48
2023/04/29 11:57:47;;;;;;;2.92;1.10;;;14.60;92.30;;;;;;1948740;74;21241;-48
2023/04/29 12:00:16;;;;;;;2.30;1.10;;;14.50;92.40;;;;;;1948692;73;21665;-48
2023/04/29 12:02:47;;;;;;;1.80;1.20;;;14.50;92.60;;;;;;1948845;74;21134;-48
2023/04/29 12:05:17;;;;;;;5.28;1.95;;;14.40;92.20;;;;;;1948776;74;21070;-47
2023/04/29 12:07:46;;;;;;;5.75;2.65;;;14.40;92.30;;;;;;1948901;74;21382;-48
2023/04/29 12:10:16;;;;;;;3.25;1.20;;;14.40;92.40;;;;;;1948731;74;21094;-48
2023/04/29 12:12:46;;;;;;;4.35;1.12;;;14.40;92.40;;;;;;1948732;74;21188;-48
2023/04/29 12:15:15;;;;;;;4.17;1.70;;;14.30;92.40;;;;;;1948705;74;21056;-48
2023/04/29 12:17:46;;;;;;;1.82;0.95;;;14.40;92.60;;;;;;1948786;74;21150;-49
2023/04/29 12:20:15;;;;;;;3.35;1.70;;;14.30;92.40;;;;;;1948863;74;21274;-49
2023/04/29 12:22:44;;;;;;;2.55;1.30;;;14.30;92.50;;;;;;1948719;74;21232;-48
2023/04/29 12:25:15;;;;;;;3.12;1.20;;;14.30;92.50;;;;;;1948783;74;21193;-48
2023/04/29 12:27:44;;;;;;;1.87;1.30;;;14.40;92.40;;;;;;1948711;74;21142;-49
2023/04/29 12:30:14;;;;;;;2.10;1.10;;;14.40;92.60;;;;;;1948730;74;21110;-48
2023/04/29 12:32:43;;;;;;;2.12;1.30;;;14.40;92.60;;;;;;1948634;74;21126;-48
2023/04/29 12:35:16;;;;;;;4.10;1.95;;;14.50;92.50;;;;;;1948761;74;21070;-49
2023/04/29 12:37:50;;;;;;;2.70;1.30;;;14.50;92.50;;;;;;1948728;74;21106;-48
2023/04/29 12:40:19;;;;;;;5.17;1.75;;;14.50;92.40;;;;;;1948686;74;21046;-48
2023/04/29 12:42:49;;;;;;;1.82;1.10;;;14.50;92.50;;;;;;1948686;74;21418;-48
2023/04/29 12:45:29;;;;;;;2.72;1.00;;;14.50;92.40;;;;;;1948892;74;21015;-48
2023/04/29 12:47:59;;;;;;;3.12;2.45;;;14.40;92.40;;;;;;1948635;74;21229;-47
2023/04/29 12:50:36;;;;;;;2.52;1.20;;;14.40;92.50;;;;;;1948777;74;21189;-48
2023/04/29 12:53:07;;;;;;;1.27;1.00;;;14.40;92.40;;;;;;1948677;74;21179;-48
2023/04/29 12:55:37;;;;;;;1.47;1.00;;;14.40;92.40;;;;;;1948772;74;21064;-48
2023/04/29 12:58:08;;;;;;;1.45;1.10;;;14.40;92.40;;;;;;1948768;74;21351;-48
2023/04/29 13:00:37;;;;;;;2.98;1.07;;;14.40;92.50;;;;;;1948689;74;21042;-49
2023/04/29 13:03:06;;;;;;;1.52;0.90;;;14.40;92.50;;;;;;1948680;74;21011;-47
2023/04/29 13:05:35;;;;;;;4.50;1.20;;;14.40;92.50;;;;;;1948747;73;21181;-49
2023/04/29 13:08:05;;;;;;;6.05;1.20;;;14.40;92.40;;;;;;1948782;73;21209;-48